createdAt,value
2018-05-11T00:01:08.437Z,22.20
2018-05-11T00:03:35.113Z,24.67
2018-05-11T00:06:02.099Z,30.20
2018-05-11T00:08:28.300Z,28.93
2018-05-11T00:10:55.906Z,34.80
2018-05-11T00:13:22.131Z,32.40
2018-05-11T00:15:48.334Z,31.80
2018-05-11T00:18:15.362Z,38.83
2018-05-11T00:20:42.290Z,36.17
2018-05-11T00:23:09.120Z,36.13
2018-05-11T00:25:35.912Z,32.50
2018-05-11T00:28:02.326Z,32.33
2018-05-11T00:30:30.136Z,35.07
2018-05-11T00:32:56.563Z,37.83
2018-05-11T00:35:24.130Z,40.37
2018-05-11T00:37:50.447Z,32.00
2018-05-11T00:40:16.791Z,37.53
2018-05-11T00:42:43.683Z,38.70
2018-05-11T00:45:10.673Z,34.57
2018-05-11T00:47:36.873Z,37.53
2018-05-11T00:50:03.264Z,41.13
2018-05-11T00:52:30.752Z,34.90
2018-05-11T00:54:58.154Z,40.00
2018-05-11T00:57:25.835Z,39.37
2018-05-11T00:59:52.495Z,38.10
2018-05-11T01:02:20.574Z,41.00
2018-05-11T01:04:48.086Z,38.47
2018-05-11T01:07:14.337Z,38.53
2018-05-11T01:09:41.752Z,38.20
2018-05-11T01:12:07.974Z,33.80
2018-05-11T01:14:34.710Z,32.07
2018-05-11T01:17:00.991Z,36.13
2018-05-11T01:19:27.873Z,33.83
2018-05-11T01:21:54.442Z,31.23
2018-05-11T01:24:22.531Z,28.43
2018-05-11T01:26:49.270Z,30.03
2018-05-11T01:29:17.014Z,26.70
2018-05-11T01:31:43.783Z,33.13
2018-05-11T01:34:10.498Z,26.70
2018-05-11T01:36:36.720Z,26.37
2018-05-11T01:39:02.975Z,28.90
2018-05-11T01:41:29.337Z,29.73
2018-05-11T01:43:56.475Z,27.23
2018-05-11T01:46:23.961Z,28.23
2018-05-11T01:48:51.220Z,25.03
2018-05-11T01:51:17.391Z,27.77
2018-05-11T01:53:44.285Z,29.00
2018-05-11T01:56:10.545Z,26.60
2018-05-11T01:58:37.348Z,31.83
2018-05-11T02:01:04.101Z,24.40
2018-05-11T02:03:30.830Z,32.27
2018-05-11T02:05:57.053Z,28.50
2018-05-11T02:08:23.584Z,29.27
2018-05-11T02:10:51.017Z,28.93
2018-05-11T02:13:17.839Z,25.63
2018-05-11T02:15:45.193Z,28.90
2018-05-11T02:18:11.960Z,29.23
2018-05-11T02:20:39.482Z,24.17
2018-05-11T02:23:05.808Z,30.80
2018-05-11T02:25:32.518Z,27.50
2018-05-11T02:27:58.925Z,24.53
2018-05-11T02:30:26.433Z,31.17
2018-05-11T02:32:53.730Z,28.90
2018-05-11T02:35:21.357Z,33.03
2018-05-11T02:37:48.150Z,27.87
2018-05-11T02:40:14.342Z,24.00
2018-05-11T02:42:40.550Z,30.80
2018-05-11T02:45:07.095Z,31.17
2018-05-11T02:47:34.722Z,33.43
2018-05-11T02:50:00.949Z,27.10
2018-05-11T02:52:27.158Z,30.73
2018-05-11T02:54:53.348Z,30.30
2018-05-11T02:57:28.728Z,26.95
2018-05-11T02:59:55.180Z,33.70
2018-05-11T03:02:29.110Z,31.30
2018-05-11T03:04:56.827Z,29.40
2018-05-11T03:07:23.709Z,26.93
2018-05-11T03:09:50.916Z,30.50
2018-05-11T03:12:17.872Z,28.20
2018-05-11T03:14:44.811Z,33.72
2018-05-11T03:17:11.556Z,32.73
2018-05-11T03:19:37.786Z,29.00
2018-05-11T03:22:04.013Z,32.42
2018-05-11T03:24:30.880Z,32.33
2018-05-11T03:26:57.590Z,36.90
2018-05-11T03:29:24.964Z,31.27
2018-05-11T03:31:51.708Z,29.25
2018-05-11T03:34:18.474Z,34.03
2018-05-11T03:36:45.216Z,34.63
2018-05-11T03:39:11.501Z,31.77
2018-05-11T03:41:38.261Z,34.77
2018-05-11T03:44:04.993Z,32.07
2018-05-11T03:46:31.213Z,34.07
2018-05-11T03:48:58.056Z,36.40
2018-05-11T03:51:24.265Z,28.93
2018-05-11T03:53:51.144Z,37.27
2018-05-11T03:56:17.416Z,39.00
2018-05-11T03:58:44.429Z,34.90
2018-05-11T04:01:23.515Z,30.30
2018-05-11T04:04:01.815Z,33.80
2018-05-11T04:06:40.963Z,33.43
2018-05-11T04:09:08.132Z,29.20
2018-05-11T04:11:35.429Z,33.90
2018-05-11T04:14:03.452Z,32.03
2018-05-11T04:16:32.441Z,27.77
2018-05-11T04:18:58.789Z,36.03
2018-05-11T04:21:25.031Z,32.92
2018-05-11T04:23:51.217Z,31.47
2018-05-11T04:26:18.012Z,31.20
2018-05-11T04:28:44.200Z,30.50
2018-05-11T04:31:11.372Z,31.43
2018-05-11T04:33:37.811Z,35.77
2018-05-11T04:36:04.861Z,28.52
2018-05-11T04:38:31.073Z,31.93
2018-05-11T04:40:58.442Z,32.33
2018-05-11T04:43:25.236Z,32.43
2018-05-11T04:45:51.545Z,34.80
2018-05-11T04:48:18.531Z,28.60
2018-05-11T04:50:44.745Z,30.47
2018-05-11T04:53:12.129Z,29.63
2018-05-11T04:55:38.389Z,32.70
2018-05-11T04:58:04.593Z,33.40
2018-05-11T05:00:30.904Z,36.80
2018-05-11T05:02:57.786Z,36.53
2018-05-11T05:05:24.765Z,37.43
2018-05-11T05:07:50.949Z,27.20
2018-05-11T05:10:17.714Z,37.63
2018-05-11T05:12:45.088Z,34.73
2018-05-11T05:15:12.092Z,28.37
2018-05-11T05:17:38.803Z,27.83
2018-05-11T05:20:05.036Z,32.50
2018-05-11T05:22:31.222Z,39.73
2018-05-11T05:24:57.433Z,34.47
2018-05-11T05:27:24.364Z,30.50
2018-05-11T05:29:50.551Z,33.93
2018-05-11T05:32:17.773Z,33.20
2018-05-11T05:34:44.557Z,33.37
2018-05-11T05:37:10.846Z,32.27
2018-05-11T05:39:37.142Z,39.17
2018-05-11T05:42:03.415Z,38.03
2018-05-11T05:44:29.598Z,38.03
2018-05-11T05:46:55.824Z,36.97
2018-05-11T05:49:22.679Z,45.57
2018-05-11T05:51:50.170Z,37.90
2018-05-11T05:54:16.802Z,40.67
2018-05-11T05:56:44.279Z,38.30
2018-05-11T05:59:11.095Z,37.83
2018-05-11T06:01:37.741Z,35.03
2018-05-11T06:04:04.760Z,30.03
2018-05-11T06:06:31.724Z,36.07
2018-05-11T06:08:57.919Z,37.13
2018-05-11T06:11:25.870Z,37.80
2018-05-11T06:13:52.575Z,34.43
2018-05-11T06:16:19.554Z,55.70
2018-05-11T06:18:45.904Z,37.17
2018-05-11T06:21:13.856Z,44.00
2018-05-11T06:23:40.649Z,33.07
2018-05-11T06:26:07.414Z,35.77
2018-05-11T06:28:33.648Z,40.13
2018-05-11T06:31:00.171Z,40.13
2018-05-11T06:33:27.185Z,37.93
2018-05-11T06:35:53.396Z,41.23
2018-05-11T06:38:21.024Z,46.20
2018-05-11T06:40:48.517Z,40.73
2018-05-11T06:43:15.575Z,41.57
2018-05-11T06:45:42.509Z,42.80
2018-05-11T06:48:10.973Z,41.63
2018-05-11T06:50:37.305Z,36.43
2018-05-11T06:53:05.228Z,34.70
2018-05-11T06:55:32.049Z,36.10
2018-05-11T06:57:58.486Z,43.63
2018-05-11T07:00:24.690Z,38.73
2018-05-11T07:02:51.746Z,35.73
2018-05-11T07:05:19.274Z,41.43
2018-05-11T07:07:45.660Z,39.47
2018-05-11T07:10:12.350Z,38.77
2018-05-11T07:12:38.576Z,43.17
2018-05-11T07:15:05.081Z,38.17
2018-05-11T07:17:33.301Z,37.27
2018-05-11T07:20:00.248Z,39.83
2018-05-11T07:22:27.301Z,40.00
2018-05-11T07:24:54.809Z,38.30
2018-05-11T07:27:20.993Z,34.90
2018-05-11T07:29:47.816Z,41.00
2018-05-11T07:32:15.810Z,36.67
2018-05-11T07:34:42.201Z,35.93
2018-05-11T07:37:09.792Z,39.40
2018-05-11T07:39:36.772Z,39.90
2018-05-11T07:42:03.068Z,39.97
2018-05-11T07:44:29.757Z,34.93
2018-05-11T07:46:56.733Z,41.47
2018-05-11T07:49:24.262Z,39.17
2018-05-11T07:51:51.025Z,37.83
2018-05-11T07:54:18.241Z,36.23
2018-05-11T07:56:44.484Z,33.67
2018-05-11T07:59:10.992Z,33.63
2018-05-11T08:01:41.640Z,36.30
2018-05-11T08:04:09.121Z,37.07
2018-05-11T08:06:37.054Z,42.70
2018-05-11T08:09:04.153Z,41.43
2018-05-11T08:11:31.215Z,39.27
2018-05-11T08:13:58.538Z,38.23
2018-05-11T08:16:25.676Z,37.00
2018-05-11T08:18:52.918Z,38.70
2018-05-11T08:21:19.757Z,40.30
2018-05-11T08:23:47.251Z,42.10
2018-05-11T08:26:13.801Z,39.23
2018-05-11T08:28:40.718Z,37.33
2018-05-11T08:31:06.973Z,45.30
2018-05-11T08:33:33.961Z,39.03
2018-05-11T08:36:00.302Z,37.73
2018-05-11T08:38:27.183Z,33.63
2018-05-11T08:40:54.434Z,34.00
2018-05-11T08:43:21.647Z,37.70
2018-05-11T08:45:47.836Z,38.27
2018-05-11T08:48:14.181Z,39.77
2018-05-11T08:50:40.860Z,35.60
2018-05-11T08:53:08.071Z,34.73
2018-05-11T08:55:34.831Z,34.77
2018-05-11T08:58:01.801Z,39.03
2018-05-11T09:00:28.780Z,37.00
2018-05-11T09:02:56.138Z,35.40
2018-05-11T09:05:22.373Z,36.50
2018-05-11T09:07:48.600Z,37.20
2018-05-11T09:10:15.335Z,38.40
2018-05-11T09:12:41.793Z,37.10
2018-05-11T09:15:08.934Z,39.10
2018-05-11T09:17:35.952Z,38.90
2018-05-11T09:20:02.908Z,40.50
2018-05-11T09:22:29.133Z,40.03
2018-05-11T09:24:55.471Z,41.60
2018-05-11T09:27:21.781Z,34.00
2018-05-11T09:29:49.225Z,41.27
2018-05-11T09:32:23.090Z,41.93
2018-05-11T09:34:49.331Z,38.47
2018-05-11T09:37:15.576Z,34.60
2018-05-11T09:39:41.858Z,31.70
2018-05-11T09:42:08.539Z,31.70
2018-05-11T09:44:34.750Z,31.20
2018-05-11T09:47:01.878Z,32.17
2018-05-11T09:49:29.403Z,39.33
2018-05-11T09:51:56.027Z,41.70
2018-05-11T09:54:23.781Z,42.77
2018-05-11T09:56:50.566Z,38.03
2018-05-11T09:59:16.805Z,34.00
2018-05-11T10:01:43.598Z,34.60
2018-05-11T10:04:09.823Z,31.30
2018-05-11T10:06:36.580Z,27.70
2018-05-11T10:09:03.812Z,30.80
2018-05-11T10:11:30.841Z,30.93
2018-05-11T10:13:57.734Z,28.47
2018-05-11T10:16:24.144Z,26.40
2018-05-11T10:18:51.125Z,29.10
2018-05-11T10:21:17.475Z,33.17
2018-05-11T10:23:43.681Z,30.17
2018-05-11T10:26:09.864Z,43.43
2018-05-11T10:28:36.771Z,26.80
2018-05-11T10:31:03.514Z,28.83
2018-05-11T10:33:29.724Z,25.87
2018-05-11T10:35:55.950Z,27.23
2018-05-11T10:38:22.952Z,31.20
2018-05-11T10:40:50.149Z,25.97
2018-05-11T10:43:17.124Z,27.83
2018-05-11T10:45:43.438Z,26.90
2018-05-11T10:48:10.311Z,26.50
2018-05-11T10:50:36.544Z,31.03
2018-05-11T10:53:02.884Z,27.60
2018-05-11T10:55:30.789Z,28.80
2018-05-11T10:57:57.824Z,27.60
2018-05-11T11:00:24.094Z,30.07
2018-05-11T11:02:50.962Z,29.43
2018-05-11T11:05:17.257Z,26.63
2018-05-11T11:07:43.975Z,31.80
2018-05-11T11:10:10.773Z,29.23
2018-05-11T11:12:37.005Z,27.87
2018-05-11T11:15:03.246Z,25.20
2018-05-11T11:17:30.746Z,23.23
2018-05-11T11:19:57.508Z,27.00
2018-05-11T11:22:24.456Z,27.20
2018-05-11T11:24:50.762Z,27.57
2018-05-11T11:27:17.961Z,25.73
2018-05-11T11:29:44.283Z,27.13
2018-05-11T11:32:10.874Z,28.50
2018-05-11T11:34:37.920Z,27.77
2018-05-11T11:37:04.661Z,23.43
2018-05-11T11:39:31.265Z,23.40
2018-05-11T11:41:58.929Z,22.70
2018-05-11T11:44:26.305Z,23.00
2018-05-11T11:46:52.516Z,25.43
2018-05-11T11:49:19.468Z,22.97
2018-05-11T11:51:46.129Z,22.93
2018-05-11T11:54:20.661Z,21.30
2018-05-11T11:56:46.877Z,25.80
2018-05-11T11:59:13.139Z,23.37
2018-05-11T12:01:39.441Z,23.40
2018-05-11T12:04:06.282Z,22.87
2018-05-11T12:06:33.045Z,25.10
2018-05-11T12:08:59.551Z,25.00
2018-05-11T12:11:26.413Z,26.53
2018-05-11T12:14:00.073Z,24.70
2018-05-11T12:16:27.317Z,22.20
2018-05-11T12:18:54.359Z,22.30
2018-05-11T12:21:21.532Z,24.03
2018-05-11T12:23:49.856Z,27.90
2018-05-11T12:26:16.735Z,24.40
2018-05-11T12:28:43.239Z,24.73
2018-05-11T12:33:48.243Z,23.27
2018-05-11T12:36:16.166Z,25.30
2018-05-11T12:38:43.133Z,19.17
2018-05-11T12:41:10.229Z,23.07
2018-05-11T12:43:37.301Z,21.17
2018-05-11T12:46:03.551Z,21.07
2018-05-11T12:48:30.589Z,20.50
2018-05-11T12:50:58.251Z,24.80
2018-05-11T12:53:25.907Z,21.77
2018-05-11T12:55:52.205Z,18.27
2018-05-11T12:58:19.343Z,21.57
2018-05-11T13:00:45.585Z,22.40
2018-05-11T13:03:11.865Z,21.40
2018-05-11T13:05:38.598Z,20.77
2018-05-11T13:08:05.558Z,21.20
2018-05-11T13:10:32.130Z,22.43
2018-05-11T13:13:00.187Z,19.60
2018-05-11T13:15:26.395Z,18.93
2018-05-11T13:17:52.597Z,18.47
2018-05-11T13:20:19.765Z,19.47
2018-05-11T13:22:45.998Z,20.50
2018-05-11T13:25:12.888Z,19.50
2018-05-11T13:27:40.131Z,19.57
2018-05-11T13:30:07.398Z,18.70
2018-05-11T13:32:33.656Z,20.00
2018-05-11T13:35:00.850Z,19.30
2018-05-11T13:37:28.877Z,21.00
2018-05-11T13:39:55.921Z,19.00
2018-05-11T13:42:23.281Z,18.13
2018-05-11T13:44:50.307Z,17.93
2018-05-11T13:47:17.397Z,16.33
2018-05-11T13:49:44.061Z,15.37
2018-05-11T13:52:11.054Z,16.67
2018-05-11T13:54:38.173Z,16.17
2018-05-11T13:57:05.769Z,16.90
2018-05-11T13:59:33.266Z,17.47
2018-05-11T14:02:00.754Z,15.13
2018-05-11T14:04:27.032Z,15.60
2018-05-11T14:06:53.815Z,15.03
2018-05-11T14:09:20.561Z,16.40
2018-05-11T14:11:46.753Z,16.83
2018-05-11T14:14:13.595Z,15.30
2018-05-11T14:16:40.834Z,15.07
2018-05-11T14:19:07.164Z,14.97
2018-05-11T14:21:33.399Z,13.93
2018-05-11T14:24:00.006Z,15.33
2018-05-11T14:42:42.733Z,14.60
2018-05-11T14:45:10.981Z,15.23
2018-05-11T14:47:38.498Z,14.30
2018-05-11T14:50:04.702Z,16.43
2018-05-11T14:52:31.952Z,15.60
2018-05-11T14:54:58.545Z,13.80
2018-05-11T14:57:25.665Z,15.33
2018-05-11T14:59:51.924Z,14.23
2018-05-11T15:02:18.698Z,13.23
2018-05-11T15:04:45.156Z,14.27
2018-05-11T15:07:13.377Z,17.83
2018-05-11T15:09:40.354Z,14.13
2018-05-11T15:12:07.547Z,12.70
2018-05-11T15:14:34.083Z,14.37
2018-05-11T15:17:01.779Z,14.17
2018-05-11T15:19:28.546Z,14.03
2018-05-11T15:21:54.797Z,14.93
2018-05-11T15:24:21.685Z,15.30
2018-05-11T15:26:48.679Z,12.40
2018-05-11T15:29:15.493Z,13.40
2018-05-11T15:31:42.975Z,11.83
2018-05-11T15:34:09.237Z,12.13
2018-05-11T15:36:35.764Z,14.03
2018-05-11T15:39:03.256Z,13.43
2018-05-11T15:41:30.905Z,13.57
2018-05-11T15:43:57.274Z,15.03
2018-05-11T15:46:24.539Z,11.57
2018-05-11T15:48:50.902Z,14.37
2018-05-11T15:51:17.774Z,13.23
2018-05-11T15:53:45.071Z,12.07
2018-05-11T15:56:12.279Z,14.00
2018-05-11T15:58:39.856Z,13.30
2018-05-11T16:01:07.399Z,13.90
2018-05-11T16:03:34.582Z,13.57
2018-05-11T16:06:01.684Z,13.53
2018-05-11T16:08:28.499Z,12.67
2018-05-11T16:10:55.128Z,13.17
2018-05-11T16:13:22.236Z,13.10
2018-05-11T16:15:49.314Z,11.60
2018-05-11T16:18:15.938Z,13.20
2018-05-11T16:20:43.008Z,12.30
2018-05-11T16:23:09.964Z,12.40
2018-05-11T16:25:37.037Z,13.03
2018-05-11T16:28:03.257Z,14.90
2018-05-11T16:30:29.475Z,12.67
2018-05-11T16:35:30.571Z,13.20
2018-05-11T16:37:57.508Z,13.17
2018-05-11T16:40:24.562Z,13.60
2018-05-11T16:42:51.331Z,13.87
2018-05-11T16:45:18.060Z,13.43
2018-05-11T16:47:44.301Z,12.50
2018-05-11T16:50:11.706Z,14.77
2018-05-11T16:52:38.033Z,13.13
2018-05-11T16:55:04.999Z,13.30
2018-05-11T16:57:31.979Z,12.83
2018-05-11T16:59:58.180Z,13.33
2018-05-11T17:02:25.149Z,10.93
2018-05-11T17:04:51.482Z,13.07
2018-05-11T17:07:18.141Z,16.13
2018-05-11T17:09:45.322Z,17.20
2018-05-11T17:12:12.336Z,15.13
2018-05-11T17:14:38.662Z,14.67
2018-05-11T17:17:05.670Z,14.67
2018-05-11T17:19:33.283Z,12.60
2018-05-11T17:22:00.804Z,16.30
2018-05-11T17:24:27.013Z,13.60
2018-05-11T17:26:54.642Z,15.07
2018-05-11T17:29:21.434Z,13.27
2018-05-11T17:31:47.652Z,13.70
2018-05-11T17:34:13.818Z,11.67
2018-05-11T17:36:40.255Z,15.33
2018-05-11T17:39:07.729Z,15.43
2018-05-11T17:41:34.130Z,13.90
2018-05-11T17:44:01.566Z,17.50
2018-05-11T17:46:27.791Z,16.07
2018-05-11T17:48:54.028Z,12.67
2018-05-11T17:51:20.795Z,37.77
2018-05-11T17:53:47.163Z,77.97
2018-05-11T17:56:14.774Z,127.40
2018-05-11T17:58:41.565Z,33.13
2018-05-11T18:01:08.509Z,18.40
2018-05-11T18:03:36.057Z,20.50
2018-05-11T18:06:02.612Z,18.30
2018-05-11T18:08:29.591Z,13.10
2018-05-11T18:10:55.914Z,12.10
2018-05-11T18:13:22.780Z,12.10
2018-05-11T18:15:49.520Z,13.17
2018-05-11T18:18:16.262Z,14.07
2018-05-11T18:20:43.115Z,12.67
2018-05-11T18:23:10.195Z,12.70
2018-05-11T18:25:37.820Z,13.47
2018-05-11T18:28:04.560Z,13.40
2018-05-11T18:30:30.823Z,12.43
2018-05-11T18:32:57.805Z,12.47
2018-05-11T18:35:24.661Z,12.83
2018-05-11T18:37:50.878Z,15.03
2018-05-11T18:40:17.820Z,15.50
2018-05-11T18:42:45.025Z,13.27
2018-05-11T18:45:12.022Z,13.77
2018-05-11T18:47:38.269Z,13.03
2018-05-11T18:50:05.023Z,15.13
2018-05-11T18:52:32.816Z,13.20
2018-05-11T18:55:00.777Z,12.60
2018-05-11T18:57:28.124Z,13.20
2018-05-11T18:59:54.352Z,14.17
2018-05-11T19:02:21.255Z,14.03
2018-05-11T19:04:48.041Z,13.47
2018-05-11T19:07:15.191Z,12.87
2018-05-11T19:09:42.202Z,13.10
2018-05-11T19:12:08.716Z,15.93
2018-05-11T19:14:35.458Z,15.83
2018-05-11T19:17:02.874Z,11.83
2018-05-11T19:19:29.106Z,11.93
2018-05-11T19:21:56.203Z,13.50
2018-05-11T19:24:23.065Z,12.67
2018-05-11T19:26:49.533Z,13.43
2018-05-11T19:29:17.103Z,16.30
2018-05-11T19:31:43.385Z,13.90
2018-05-11T19:34:09.638Z,13.70
2018-05-11T19:36:37.352Z,15.83
2018-05-11T19:39:03.904Z,12.37
2018-05-11T19:41:31.736Z,14.30
2018-05-11T19:43:58.512Z,13.03
2018-05-11T19:46:24.758Z,13.17
2018-05-11T19:48:51.770Z,12.97
2018-05-11T19:51:17.989Z,12.70
2018-05-11T19:53:44.431Z,12.87
2018-05-11T19:56:11.655Z,13.27
2018-05-11T19:58:38.209Z,13.57
2018-05-11T20:01:05.714Z,14.20
2018-05-11T20:03:32.760Z,14.37
2018-05-11T20:05:59.286Z,12.33
2018-05-11T20:08:25.515Z,12.90
2018-05-11T20:10:52.150Z,14.93
2018-05-11T20:13:18.516Z,14.63
2018-05-11T20:15:45.576Z,13.90
2018-05-11T20:18:12.101Z,14.17
2018-05-11T20:20:38.771Z,14.23
2018-05-11T20:23:05.031Z,15.40
2018-05-11T20:25:31.259Z,13.53
2018-05-11T20:27:57.474Z,13.07
2018-05-11T20:30:23.706Z,14.33
2018-05-11T20:32:49.913Z,13.33
2018-05-11T20:35:16.146Z,12.63
2018-05-11T20:37:43.304Z,13.37
2018-05-11T20:40:09.562Z,14.00
2018-05-11T20:42:35.785Z,13.20
2018-05-11T20:45:01.992Z,14.07
2018-05-11T20:47:28.549Z,13.60
2018-05-11T20:49:55.065Z,14.17
2018-05-11T20:52:22.696Z,13.40
2018-05-11T20:54:50.922Z,13.50
2018-05-11T20:57:17.133Z,12.40
2018-05-11T20:59:44.005Z,13.00
2018-05-11T21:02:10.999Z,12.50
2018-05-11T21:04:37.556Z,12.47
2018-05-11T21:07:05.179Z,12.17
2018-05-11T21:09:32.479Z,12.90
2018-05-11T21:11:58.701Z,14.03
2018-05-11T21:14:25.535Z,13.37
2018-05-11T21:16:52.324Z,12.90
2018-05-11T21:19:19.143Z,14.80
2018-05-11T21:21:46.637Z,12.53
2018-05-11T21:24:13.402Z,11.40
2018-05-11T21:26:39.596Z,12.23
2018-05-11T21:29:05.956Z,12.13
2018-05-11T21:31:33.109Z,14.10
2018-05-11T21:33:59.878Z,14.10
2018-05-11T21:36:26.277Z,16.40
2018-05-11T21:38:53.210Z,15.50
2018-05-11T21:41:19.411Z,15.40
2018-05-11T21:43:46.370Z,14.70
2018-05-11T21:46:12.570Z,15.20
2018-05-11T21:48:40.051Z,14.10
2018-05-11T21:51:07.870Z,14.60
2018-05-11T21:53:34.092Z,14.17
2018-05-11T21:56:00.627Z,14.00
2018-05-11T21:58:28.274Z,14.47
2018-05-11T22:00:55.470Z,15.67
2018-05-11T22:03:22.442Z,13.83
2018-05-11T22:05:49.253Z,14.67
2018-05-11T22:08:15.462Z,13.67
2018-05-11T22:10:41.644Z,13.80
2018-05-11T22:13:07.960Z,12.70
2018-05-11T22:15:34.246Z,13.03
2018-05-11T22:18:00.606Z,12.77
2018-05-11T22:20:27.657Z,12.10
2018-05-11T22:22:54.823Z,12.97
2018-05-11T22:41:36.971Z,11.60
2018-05-11T22:44:03.186Z,13.13
2018-05-11T22:46:29.974Z,13.20
2018-05-11T22:48:56.890Z,12.60
2018-05-11T22:51:23.758Z,13.90
2018-05-11T22:53:50.741Z,13.37
2018-05-11T22:56:17.345Z,17.33
2018-05-11T22:58:44.337Z,14.20
2018-05-11T23:01:10.675Z,13.80
2018-05-11T23:03:36.930Z,13.53
2018-05-11T23:06:03.689Z,14.40
2018-05-11T23:08:30.480Z,14.47
2018-05-11T23:10:57.248Z,13.13
2018-05-11T23:13:23.494Z,13.73
2018-05-11T23:15:50.413Z,14.80
2018-05-11T23:18:17.005Z,15.47
2018-05-11T23:20:44.021Z,16.43
2018-05-11T23:23:10.961Z,13.70
2018-05-11T23:25:38.466Z,14.50
2018-05-11T23:28:05.501Z,14.70
2018-05-11T23:30:33.165Z,15.00
2018-05-11T23:32:59.935Z,15.60
2018-05-11T23:35:27.009Z,15.00
2018-05-11T23:37:53.951Z,15.60
2018-05-11T23:40:22.027Z,14.40
2018-05-11T23:42:49.192Z,15.43
2018-05-11T23:45:16.673Z,15.63
2018-05-11T23:47:42.885Z,15.10
2018-05-11T23:50:09.728Z,16.33
2018-05-11T23:52:43.101Z,16.00
2018-05-11T23:55:10.988Z,16.27
2018-05-11T23:57:37.200Z,15.10
